createdAt,value
2023-02-04T00:00:56.792Z,14.17
2023-02-04T00:03:23.296Z,12.53
2023-02-04T00:05:50.467Z,13.37
2023-02-04T00:08:17.043Z,13.40
2023-02-04T00:10:43.516Z,12.40
2023-02-04T00:13:10.072Z,8.90
2023-02-04T00:15:36.754Z,14.10
2023-02-04T00:18:03.956Z,12.63
2023-02-04T00:20:30.718Z,13.70
2023-02-04T00:22:57.620Z,13.33
2023-02-04T00:25:24.235Z,11.43
2023-02-04T00:27:54.022Z,13.37
2023-02-04T00:30:23.603Z,10.03
2023-02-04T00:32:54.870Z,12.70
2023-02-04T00:35:22.388Z,9.37
2023-02-04T00:37:51.580Z,13.20
2023-02-04T00:40:18.189Z,11.90
2023-02-04T00:42:44.763Z,14.90
2023-02-04T00:45:12.500Z,11.73
2023-02-04T00:47:39.070Z,11.33
2023-02-04T00:50:06.151Z,15.93
2023-02-04T00:52:33.077Z,14.27
2023-02-04T00:54:59.519Z,15.77
2023-02-04T00:57:25.951Z,15.37
2023-02-04T00:59:55.915Z,13.00
2023-02-04T01:02:26.005Z,14.80
2023-02-04T01:04:53.019Z,8.93
2023-02-04T01:07:19.576Z,11.97
2023-02-04T01:09:46.087Z,13.13
2023-02-04T01:12:12.503Z,10.67
2023-02-04T01:14:38.986Z,11.50
2023-02-04T01:17:05.716Z,12.87
2023-02-04T01:19:32.324Z,8.90
2023-02-04T01:21:58.817Z,11.43
2023-02-04T01:24:25.249Z,9.07
2023-02-04T01:26:54.096Z,11.10
2023-02-04T01:29:20.572Z,12.73
2023-02-04T01:31:47.095Z,12.53
2023-02-04T01:34:13.552Z,15.03
2023-02-04T01:36:40.026Z,18.20
2023-02-04T01:39:06.490Z,14.93
2023-02-04T01:41:33.870Z,13.20
2023-02-04T01:44:00.486Z,13.67
2023-02-04T01:46:27.054Z,10.87
2023-02-04T01:48:57.986Z,12.67
2023-02-04T01:51:30.370Z,12.67
2023-02-04T01:53:56.928Z,16.33
2023-02-04T01:56:26.779Z,13.80
2023-02-04T01:58:56.200Z,17.23
2023-02-04T02:01:38.413Z,19.23
2023-02-04T02:04:05.880Z,17.07
2023-02-04T02:06:32.414Z,15.10
2023-02-04T02:08:58.986Z,15.40
2023-02-04T02:11:28.958Z,18.40
2023-02-04T02:13:58.507Z,15.40
2023-02-04T02:16:29.830Z,12.30
2023-02-04T02:19:00.045Z,14.00
2023-02-04T02:21:42.465Z,13.17
2023-02-04T02:24:30.980Z,11.33
2023-02-04T02:27:00.224Z,12.37
2023-02-04T02:29:29.697Z,10.07
2023-02-04T02:32:00.211Z,10.70
2023-02-04T02:34:31.103Z,18.20
2023-02-04T02:37:02.212Z,9.00
2023-02-04T02:39:29.188Z,10.43
2023-02-04T02:41:59.781Z,18.10
2023-02-04T02:44:30.819Z,12.60
2023-02-04T02:47:01.410Z,12.43
2023-02-04T02:49:32.813Z,10.73
2023-02-04T02:51:59.412Z,8.73
2023-02-04T02:54:31.155Z,12.33
2023-02-04T02:57:00.798Z,12.10
2023-02-04T02:59:29.184Z,10.17
2023-02-04T03:02:01.353Z,13.87
2023-02-04T03:04:35.737Z,9.53
2023-02-04T03:07:02.335Z,8.10
2023-02-04T03:09:29.995Z,10.43
2023-02-04T03:11:56.643Z,9.57
2023-02-04T03:14:25.253Z,7.93
2023-02-04T03:16:54.508Z,6.77
2023-02-04T03:19:21.103Z,7.63
2023-02-04T03:21:47.678Z,9.43
2023-02-04T03:24:14.389Z,8.83
2023-02-04T03:26:40.892Z,10.87
2023-02-04T03:29:09.889Z,9.00
2023-02-04T03:31:37.964Z,9.03
2023-02-04T03:34:04.727Z,10.20
2023-02-04T03:36:31.160Z,10.40
2023-02-04T03:38:57.679Z,14.67
2023-02-04T03:41:24.274Z,13.20
2023-02-04T03:43:50.748Z,20.20
2023-02-04T03:46:17.251Z,22.27
2023-02-04T03:48:43.716Z,19.43
2023-02-04T03:51:10.132Z,20.97
2023-02-04T03:53:36.670Z,16.60
2023-02-04T03:56:03.308Z,15.23
2023-02-04T03:58:31.810Z,18.67
2023-02-04T04:00:58.501Z,10.83
2023-02-04T04:03:25.050Z,9.60
2023-02-04T04:05:51.533Z,9.60
2023-02-04T04:08:18.025Z,13.00
2023-02-04T04:10:44.610Z,9.60
2023-02-04T04:13:11.089Z,10.63
2023-02-04T04:15:37.578Z,11.63
2023-02-04T04:18:04.699Z,14.07
2023-02-04T04:20:33.881Z,12.93
2023-02-04T04:23:00.603Z,15.70
2023-02-04T04:25:27.043Z,11.10
2023-02-04T04:27:53.602Z,13.40
2023-02-04T04:30:20.166Z,9.17
2023-02-04T04:32:46.664Z,11.13
2023-02-04T04:35:13.139Z,11.50
2023-02-04T04:37:39.603Z,9.57
2023-02-04T04:40:06.516Z,15.57
2023-02-04T04:42:36.777Z,14.50
2023-02-04T04:45:09.225Z,14.80
2023-02-04T04:47:35.724Z,11.07
2023-02-04T04:50:04.730Z,12.40
2023-02-04T04:52:31.248Z,14.27
2023-02-04T04:54:57.735Z,16.97
2023-02-04T04:57:24.196Z,17.57
2023-02-04T04:59:50.759Z,10.67
2023-02-04T05:02:17.264Z,12.73
2023-02-04T05:04:43.812Z,11.30
2023-02-04T05:07:10.285Z,13.97
2023-02-04T05:09:36.795Z,11.43
2023-02-04T05:12:03.350Z,15.93
2023-02-04T05:14:30.504Z,11.73
2023-02-04T05:16:56.977Z,13.27
2023-02-04T05:19:23.485Z,14.37
2023-02-04T05:21:49.938Z,11.47
2023-02-04T05:24:16.447Z,10.57
2023-02-04T05:26:43.006Z,10.07
2023-02-04T05:29:10.791Z,13.27
2023-02-04T05:31:37.470Z,13.20
2023-02-04T05:34:04.373Z,11.20
2023-02-04T05:36:31.616Z,15.90
2023-02-04T05:38:58.087Z,12.43
2023-02-04T05:41:24.529Z,8.43
2023-02-04T05:43:50.968Z,13.43
2023-02-04T05:46:17.481Z,9.17
2023-02-04T05:48:43.992Z,13.70
2023-02-04T05:51:10.748Z,8.57
2023-02-04T05:53:38.438Z,10.37
2023-02-04T05:56:05.234Z,7.27
2023-02-04T05:58:33.659Z,9.20
2023-02-04T06:01:04.499Z,10.27
2023-02-04T06:03:35.867Z,9.80
2023-02-04T06:06:03.462Z,14.10
2023-02-04T06:08:29.940Z,16.60
2023-02-04T06:10:56.477Z,12.07
2023-02-04T06:13:23.101Z,8.40
2023-02-04T06:15:49.579Z,12.17
2023-02-04T06:18:16.025Z,10.57
2023-02-04T06:20:42.554Z,12.40
2023-02-04T06:23:09.067Z,14.03
2023-02-04T06:25:36.651Z,15.93
2023-02-04T06:28:03.246Z,37.97
2023-02-04T06:30:29.921Z,33.03
2023-02-04T06:32:56.535Z,37.50
2023-02-04T06:35:23.010Z,72.57
2023-02-04T06:37:49.521Z,37.77
2023-02-04T06:40:16.108Z,21.53
2023-02-04T06:42:42.608Z,17.97
2023-02-04T06:45:09.296Z,15.70
2023-02-04T06:47:37.863Z,13.97
2023-02-04T06:50:04.464Z,10.27
2023-02-04T06:52:31.178Z,9.93
2023-02-04T06:54:58.129Z,10.40
2023-02-04T06:57:25.078Z,16.47
2023-02-04T06:59:51.813Z,15.87
2023-02-04T07:02:18.818Z,11.53
2023-02-04T07:04:47.692Z,12.17
2023-02-04T07:07:14.435Z,10.97
2023-02-04T07:09:40.948Z,11.60
2023-02-04T07:12:08.887Z,9.67
2023-02-04T07:14:42.480Z,9.73
2023-02-04T07:17:08.999Z,10.40
2023-02-04T07:19:40.222Z,15.63
2023-02-04T07:22:10.213Z,11.33
2023-02-04T07:24:38.189Z,9.87
2023-02-04T07:27:04.777Z,12.93
2023-02-04T07:29:31.248Z,10.03
2023-02-04T07:31:57.820Z,10.50
2023-02-04T07:34:24.405Z,12.13
2023-02-04T07:36:51.016Z,10.70
2023-02-04T07:39:17.902Z,10.20
2023-02-04T07:41:44.738Z,11.53
2023-02-04T07:44:11.666Z,17.07
2023-02-04T07:46:40.778Z,10.43
2023-02-04T07:49:10.468Z,9.77
2023-02-04T07:51:39.749Z,9.27
2023-02-04T07:54:08.651Z,8.63
2023-02-04T07:56:35.219Z,9.00
2023-02-04T07:59:01.745Z,13.07
2023-02-04T08:01:28.232Z,9.20
2023-02-04T08:03:54.761Z,15.93
2023-02-04T08:06:21.285Z,9.77
2023-02-04T08:08:47.816Z,9.13
2023-02-04T08:11:14.234Z,9.70
2023-02-04T08:13:40.709Z,9.77
2023-02-04T08:16:11.924Z,8.35
2023-02-04T08:18:41.342Z,11.23
2023-02-04T08:21:10.525Z,8.77
2023-02-04T08:23:41.734Z,10.57
2023-02-04T08:26:12.585Z,11.00
2023-02-04T08:28:39.203Z,9.65
2023-02-04T08:31:11.904Z,10.07
2023-02-04T08:33:39.802Z,7.17
2023-02-04T08:36:08.547Z,8.88
2023-02-04T08:38:35.528Z,11.00
2023-02-04T08:41:02.841Z,9.83
2023-02-04T08:43:29.321Z,12.85
2023-02-04T08:45:55.855Z,11.65
2023-02-04T08:48:22.381Z,11.27
2023-02-04T08:50:48.876Z,13.05
2023-02-04T08:53:15.461Z,10.23
2023-02-04T08:55:44.813Z,17.65
2023-02-04T08:58:12.496Z,13.18
2023-02-04T09:00:39.113Z,9.30
2023-02-04T09:03:08.508Z,11.47
2023-02-04T09:05:34.965Z,9.00
2023-02-04T09:08:01.588Z,14.33
2023-02-04T09:10:28.046Z,9.60
2023-02-04T09:12:56.114Z,14.07
2023-02-04T09:15:25.814Z,14.32
2023-02-04T09:18:04.415Z,11.50
2023-02-04T09:20:31.149Z,10.20
2023-02-04T09:22:57.815Z,17.20
2023-02-04T09:25:24.321Z,14.70
2023-02-04T09:27:50.841Z,7.77
2023-02-04T09:30:18.949Z,15.77
2023-02-04T09:32:45.413Z,11.53
2023-02-04T09:35:11.865Z,7.57
2023-02-04T09:37:41.293Z,12.83
2023-02-04T09:40:17.040Z,13.23
2023-02-04T09:42:46.968Z,10.20
2023-02-04T09:45:35.257Z,8.10
2023-02-04T09:48:04.345Z,7.07
2023-02-04T09:50:32.785Z,8.98
2023-02-04T09:53:04.129Z,7.55
2023-02-04T09:55:33.901Z,9.38
2023-02-04T09:58:00.728Z,8.68
2023-02-04T10:00:30.592Z,10.10
2023-02-04T10:03:00.129Z,7.50
2023-02-04T10:05:33.401Z,12.50
2023-02-04T10:08:00.499Z,12.50
2023-02-04T10:10:27.803Z,11.07
2023-02-04T10:12:58.864Z,13.93
2023-02-04T10:15:26.037Z,9.05
2023-02-04T10:17:57.753Z,7.22
2023-02-04T10:20:25.602Z,8.98
2023-02-04T10:22:54.616Z,10.57
2023-02-04T10:25:24.078Z,12.88
2023-02-04T10:27:50.860Z,15.32
2023-02-04T10:30:24.030Z,13.20
2023-02-04T10:32:51.711Z,17.63
2023-02-04T10:35:20.619Z,14.07
2023-02-04T10:37:51.114Z,15.15
2023-02-04T10:40:32.897Z,14.50
2023-02-04T10:43:00.199Z,15.07
2023-02-04T10:45:30.329Z,21.25
2023-02-04T10:47:59.280Z,14.35
2023-02-04T10:50:27.496Z,13.80
2023-02-04T10:53:16.460Z,12.00
2023-02-04T10:55:47.785Z,16.15
2023-02-04T10:58:20.634Z,13.23
2023-02-04T11:00:48.140Z,10.38
2023-02-04T11:03:28.763Z,12.20
2023-02-04T11:06:00.947Z,12.52
2023-02-04T11:08:39.098Z,13.23
2023-02-04T11:11:17.678Z,21.02
2023-02-04T11:13:50.548Z,12.73
2023-02-04T11:16:23.501Z,14.98
2023-02-04T11:18:58.541Z,12.15
2023-02-04T11:21:33.942Z,17.20
2023-02-04T11:24:12.509Z,18.05
2023-02-04T11:26:41.626Z,11.93
2023-02-04T11:29:26.862Z,16.77
2023-02-04T11:32:00.284Z,14.60
2023-02-04T11:34:29.742Z,18.98
2023-02-04T11:36:59.413Z,17.05
2023-02-04T11:39:32.108Z,14.10
2023-02-04T11:42:00.244Z,15.25
2023-02-04T11:44:27.204Z,15.15
2023-02-04T11:46:58.563Z,18.08
2023-02-04T11:49:27.086Z,16.20
2023-02-04T11:52:08.925Z,16.35
2023-02-04T11:54:39.041Z,19.98
2023-02-04T11:57:07.949Z,18.98
2023-02-04T11:59:34.443Z,13.32
2023-02-04T12:02:25.932Z,15.82
2023-02-04T12:04:57.411Z,13.40
2023-02-04T12:07:29.041Z,15.73
2023-02-04T12:09:58.568Z,15.77
2023-02-04T12:12:27.827Z,15.50
2023-02-04T12:15:13.574Z,13.55
2023-02-04T12:17:40.103Z,14.57
2023-02-04T12:20:08.291Z,13.20
2023-02-04T12:22:34.729Z,13.07
2023-02-04T12:25:01.211Z,12.75
2023-02-04T12:27:27.660Z,15.48
2023-02-04T12:29:54.122Z,16.40
2023-02-04T12:32:20.545Z,14.60
2023-02-04T12:34:46.969Z,14.98
2023-02-04T12:37:13.454Z,14.82
2023-02-04T12:39:39.987Z,12.18
2023-02-04T12:42:09.646Z,12.00
2023-02-04T12:44:37.845Z,9.85
2023-02-04T12:47:04.466Z,11.82
2023-02-04T12:49:30.940Z,9.73
2023-02-04T12:51:59.229Z,9.98
2023-02-04T12:54:25.805Z,11.02
2023-02-04T12:56:53.515Z,9.20
2023-02-04T12:59:20.003Z,9.30
2023-02-04T13:01:46.558Z,9.57
2023-02-04T13:04:13.087Z,11.02
2023-02-04T13:06:39.538Z,10.48
2023-02-04T13:09:09.370Z,10.70
2023-02-04T13:11:38.211Z,10.73
2023-02-04T13:14:04.710Z,10.32
2023-02-04T13:16:31.548Z,8.27
2023-02-04T13:18:58.043Z,9.35
2023-02-04T13:21:24.477Z,11.13
2023-02-04T13:23:51.027Z,7.80
2023-02-04T13:26:17.477Z,8.73
2023-02-04T13:28:43.946Z,14.20
2023-02-04T13:31:10.577Z,9.95
2023-02-04T13:33:39.130Z,9.57
2023-02-04T13:36:06.078Z,8.80
2023-02-04T13:38:32.649Z,11.93
2023-02-04T13:40:59.180Z,11.25
2023-02-04T13:43:25.895Z,8.18
2023-02-04T13:45:52.443Z,7.07
2023-02-04T13:48:18.942Z,8.60
2023-02-04T13:50:45.632Z,5.90
2023-02-04T13:53:12.096Z,8.60
2023-02-04T13:55:38.579Z,7.07
2023-02-04T13:58:05.273Z,6.75
2023-02-04T14:00:32.218Z,7.50
2023-02-04T14:02:58.956Z,6.53
2023-02-04T14:05:25.538Z,8.38
2023-02-04T14:07:52.132Z,5.60
2023-02-04T14:10:19.098Z,6.82
2023-02-04T14:12:45.836Z,7.18
2023-02-04T14:15:12.298Z,5.28
2023-02-04T14:17:41.587Z,7.75
2023-02-04T14:20:16.131Z,5.25
2023-02-04T14:22:42.950Z,10.55
2023-02-04T14:25:12.459Z,6.60
2023-02-04T14:27:42.340Z,5.50
2023-02-04T14:30:21.967Z,8.98
2023-02-04T14:32:48.885Z,3.97
2023-02-04T14:35:16.520Z,7.20
2023-02-04T14:37:46.941Z,9.00
2023-02-04T14:40:14.995Z,4.93
2023-02-04T14:42:44.713Z,8.00
2023-02-04T14:45:15.231Z,5.45
2023-02-04T14:47:49.232Z,9.98
2023-02-04T14:50:16.773Z,6.97
2023-02-04T14:52:43.276Z,5.93
2023-02-04T14:55:14.396Z,8.65
2023-02-04T14:57:45.070Z,6.40
2023-02-04T15:00:14.839Z,5.72
2023-02-04T15:02:42.567Z,8.82
2023-02-04T15:05:12.332Z,5.18
2023-02-04T15:07:41.331Z,6.28
2023-02-04T15:10:10.289Z,6.47
2023-02-04T15:12:36.930Z,6.32
2023-02-04T15:15:04.062Z,8.75
2023-02-04T15:17:30.526Z,7.93
2023-02-04T15:19:56.971Z,10.38
2023-02-04T15:22:23.420Z,10.05
2023-02-04T15:24:50.014Z,7.80
2023-02-04T15:27:16.562Z,8.35
2023-02-04T15:29:43.089Z,12.55
2023-02-04T15:32:13.454Z,10.23
2023-02-04T15:34:42.056Z,5.35
2023-02-04T15:37:13.652Z,8.77
2023-02-04T15:39:44.273Z,5.90
2023-02-04T15:42:14.457Z,10.45
2023-02-04T15:44:44.540Z,8.40
2023-02-04T15:47:12.743Z,9.85
2023-02-04T15:49:39.197Z,7.25
2023-02-04T15:52:07.127Z,8.23
2023-02-04T15:54:38.290Z,10.43
2023-02-04T15:57:04.722Z,9.48
2023-02-04T15:59:31.198Z,13.40
2023-02-04T16:01:57.708Z,9.40
2023-02-04T16:04:24.188Z,8.00
2023-02-04T16:06:58.480Z,4.85
2023-02-04T16:09:26.006Z,10.63
2023-02-04T16:11:52.498Z,10.15
2023-02-04T16:14:18.989Z,10.27
2023-02-04T16:16:45.518Z,6.45
2023-02-04T16:19:14.938Z,12.27
2023-02-04T16:21:44.182Z,6.43
2023-02-04T16:24:16.114Z,10.57
2023-02-04T16:26:42.857Z,16.70
2023-02-04T16:29:09.427Z,11.20
2023-02-04T16:31:35.934Z,7.63
2023-02-04T16:34:05.789Z,6.63
2023-02-04T16:36:32.353Z,7.22
2023-02-04T16:38:59.496Z,5.38
2023-02-04T16:41:26.171Z,7.65
2023-02-04T16:43:52.724Z,15.18
2023-02-04T16:46:19.301Z,6.78
2023-02-04T16:48:45.845Z,12.65
2023-02-04T16:51:13.044Z,14.32
2023-02-04T16:53:39.611Z,8.52
2023-02-04T16:56:07.014Z,10.43
2023-02-04T16:58:33.520Z,12.20
2023-02-04T17:01:00.019Z,12.38
2023-02-04T17:03:28.060Z,7.63
2023-02-04T17:05:56.117Z,6.80
2023-02-04T17:08:22.659Z,7.28
2023-02-04T17:11:08.350Z,11.15
2023-02-04T17:13:34.899Z,9.82
2023-02-04T17:16:01.949Z,10.70
2023-02-04T17:18:29.991Z,7.78
2023-02-04T17:20:57.560Z,9.82
2023-02-04T17:23:24.066Z,9.57
2023-02-04T17:25:50.599Z,10.88
2023-02-04T17:28:17.491Z,14.02
2023-02-04T17:30:46.879Z,6.47
2023-02-04T17:33:17.475Z,6.53
2023-02-04T17:35:46.743Z,9.18
2023-02-04T17:38:16.016Z,8.40
2023-02-04T17:40:46.430Z,7.47
2023-02-04T17:43:13.880Z,5.32
2023-02-04T17:45:40.339Z,5.72
2023-02-04T17:48:06.894Z,6.90
2023-02-04T17:53:08.967Z,8.95
2023-02-04T17:55:37.875Z,4.75
2023-02-04T17:58:15.672Z,5.03
2023-02-04T18:00:45.936Z,4.53
2023-02-04T18:03:23.847Z,5.78
2023-02-04T18:05:52.532Z,4.22
2023-02-04T18:08:22.241Z,7.00
2023-02-04T18:10:51.847Z,8.23
2023-02-04T18:13:18.352Z,6.18
2023-02-04T18:15:57.482Z,7.53
2023-02-04T18:18:37.738Z,5.82
2023-02-04T18:21:43.112Z,8.98
2023-02-04T18:24:09.840Z,8.00
2023-02-04T18:26:49.650Z,5.38
2023-02-04T18:29:56.683Z,7.85
2023-02-04T18:32:48.933Z,8.05
2023-02-04T18:35:40.464Z,10.35
2023-02-04T18:38:21.359Z,6.22
2023-02-04T18:41:00.228Z,6.40
2023-02-04T18:43:29.794Z,8.57
2023-02-04T18:46:07.547Z,6.63
2023-02-04T18:49:25.617Z,8.43
2023-02-04T18:51:59.362Z,9.57
2023-02-04T18:54:51.192Z,8.05
2023-02-04T18:57:29.208Z,8.02
2023-02-04T19:00:11.146Z,10.00
2023-02-04T19:02:53.881Z,8.00
2023-02-04T19:05:32.317Z,12.13
2023-02-04T19:08:21.230Z,12.20
2023-02-04T19:10:52.468Z,11.07
2023-02-04T19:13:35.918Z,18.73
2023-02-04T19:16:23.964Z,9.50
2023-02-04T19:18:52.660Z,12.23
2023-02-04T19:21:27.135Z,12.25
2023-02-04T19:24:14.249Z,7.95
2023-02-04T19:26:57.439Z,12.10
2023-02-04T19:29:30.250Z,6.15
2023-02-04T19:32:25.707Z,14.60
2023-02-04T19:34:53.187Z,8.35
2023-02-04T19:37:24.978Z,7.53
2023-02-04T19:39:51.673Z,7.00
2023-02-04T19:42:34.472Z,6.57
2023-02-04T19:45:12.731Z,8.88
2023-02-04T19:47:44.394Z,9.48
2023-02-04T19:50:13.933Z,8.20
2023-02-04T19:52:47.497Z,8.20
2023-02-04T19:55:16.738Z,7.32
2023-02-04T19:58:22.602Z,7.63
2023-02-04T20:01:04.842Z,11.13
2023-02-04T20:03:40.183Z,7.45
2023-02-04T20:06:09.727Z,7.05
2023-02-04T20:08:46.573Z,9.80
2023-02-04T20:11:31.095Z,10.88
2023-02-04T20:14:07.963Z,8.38
2023-02-04T20:16:47.027Z,7.18
2023-02-04T20:19:27.159Z,6.70
2023-02-04T20:22:15.245Z,6.80
2023-02-04T20:24:42.703Z,6.85
2023-02-04T20:27:16.918Z,5.75
2023-02-04T20:29:43.539Z,7.38
2023-02-04T20:32:26.292Z,13.30
2023-02-04T20:34:58.638Z,6.43
2023-02-04T20:37:43.666Z,5.88
2023-02-04T20:40:37.530Z,8.13
2023-02-04T20:43:12.259Z,6.72
2023-02-04T20:45:53.221Z,5.75
2023-02-04T20:48:26.325Z,8.93
2023-02-04T20:50:54.708Z,9.48
2023-02-04T20:53:28.099Z,7.50
2023-02-04T20:56:05.128Z,9.07
2023-02-04T20:58:37.571Z,6.13
2023-02-04T21:01:29.048Z,5.03
2023-02-04T21:03:57.709Z,8.48
2023-02-04T21:06:30.063Z,9.52
2023-02-04T21:08:59.052Z,10.35
2023-02-04T21:11:26.561Z,8.70
2023-02-04T21:13:54.433Z,8.00
2023-02-04T21:16:23.916Z,9.35
2023-02-04T21:18:51.114Z,8.82
2023-02-04T21:21:17.856Z,9.63
2023-02-04T21:23:44.312Z,10.10
2023-02-04T21:26:10.782Z,8.63
2023-02-04T21:28:37.298Z,8.20
2023-02-04T21:31:04.234Z,8.73
2023-02-04T21:33:30.813Z,7.18
2023-02-04T21:35:57.409Z,6.95
2023-02-04T21:38:23.918Z,8.45
2023-02-04T21:40:55.470Z,8.70
2023-02-04T21:43:22.592Z,8.13
2023-02-04T21:45:49.024Z,8.95
2023-02-04T21:48:15.452Z,13.43
2023-02-04T21:50:44.145Z,9.90
2023-02-04T21:53:10.939Z,11.90
2023-02-04T21:55:37.811Z,10.27
2023-02-04T21:58:05.415Z,9.13
2023-02-04T22:00:32.164Z,8.95
2023-02-04T22:02:58.736Z,10.45
2023-02-04T22:05:25.533Z,7.38
2023-02-04T22:07:55.348Z,7.53
2023-02-04T22:10:24.960Z,6.75
2023-02-04T22:12:54.146Z,9.65
2023-02-04T22:15:24.638Z,8.05
2023-02-04T22:17:56.290Z,8.35
2023-02-04T22:20:25.579Z,8.18
2023-02-04T22:22:59.678Z,12.57
2023-02-04T22:25:28.241Z,9.30
2023-02-04T22:27:57.544Z,7.22
2023-02-04T22:30:27.159Z,13.52
2023-02-04T22:32:56.611Z,10.90
2023-02-04T22:35:25.577Z,8.57
2023-02-04T22:37:52.065Z,14.20
2023-02-04T22:40:18.787Z,10.43
2023-02-04T22:42:45.449Z,9.98
2023-02-04T22:45:12.960Z,13.45
2023-02-04T22:47:39.471Z,10.93
2023-02-04T22:50:06.281Z,15.20
2023-02-04T22:52:32.968Z,13.93
2023-02-04T22:54:59.544Z,13.35
2023-02-04T22:57:28.890Z,15.68
2023-02-04T22:59:56.886Z,10.38
2023-02-04T23:02:23.329Z,9.73
2023-02-04T23:04:49.794Z,14.90
2023-02-04T23:07:16.313Z,11.68
2023-02-04T23:09:42.843Z,15.48
2023-02-04T23:12:15.453Z,10.55
2023-02-04T23:14:44.223Z,10.77
2023-02-04T23:17:11.496Z,11.40
2023-02-04T23:19:38.321Z,13.57
2023-02-04T23:22:06.150Z,16.73
2023-02-04T23:24:33.275Z,17.42
2023-02-04T23:27:00.240Z,12.15
2023-02-04T23:29:32.260Z,12.73
2023-02-04T23:31:59.024Z,14.25
2023-02-04T23:34:28.304Z,14.18
2023-02-04T23:36:54.792Z,11.20
2023-02-04T23:39:21.904Z,11.75
2023-02-04T23:41:49.119Z,12.38
2023-02-04T23:44:15.602Z,13.73
2023-02-04T23:46:42.156Z,9.68
2023-02-04T23:49:09.235Z,11.48
2023-02-04T23:51:36.078Z,10.45
2023-02-04T23:54:02.738Z,10.70
2023-02-04T23:56:30.298Z,11.55
2023-02-04T23:58:59.285Z,10.10
